createdAt,value
2019-02-22T00:01:51.561Z,11.20
2019-02-22T00:04:21.317Z,12.53
2019-02-22T00:06:51.132Z,12.53
2019-02-22T00:09:20.884Z,11.67
2019-02-22T00:11:50.702Z,11.83
2019-02-22T00:14:21.624Z,11.90
2019-02-22T00:16:51.497Z,11.50
2019-02-22T00:19:21.244Z,12.00
2019-02-22T00:21:51.056Z,11.93
2019-02-22T00:24:20.813Z,12.00
2019-02-22T00:26:50.622Z,13.17
2019-02-22T00:29:20.662Z,11.57
2019-02-22T00:31:50.397Z,14.27
2019-02-22T00:34:20.220Z,13.23
2019-02-22T00:36:50.417Z,13.73
2019-02-22T00:39:20.244Z,11.97
2019-02-22T00:41:50.052Z,14.33
2019-02-22T00:44:19.797Z,14.00
2019-02-22T00:46:49.615Z,15.43
2019-02-22T00:49:19.374Z,15.73
2019-02-22T00:51:49.174Z,14.80
2019-02-22T00:54:18.998Z,15.93
2019-02-22T00:56:49.069Z,12.90
2019-02-22T00:59:18.961Z,15.27
2019-02-22T01:01:48.836Z,16.50
2019-02-22T01:04:18.720Z,16.93
2019-02-22T01:06:48.590Z,16.67
2019-02-22T01:09:18.410Z,15.03
2019-02-22T01:11:48.218Z,15.27
2019-02-22T01:14:17.981Z,16.13
2019-02-22T01:16:47.722Z,15.17
2019-02-22T01:19:17.478Z,16.60
2019-02-22T01:21:47.370Z,15.73
2019-02-22T01:24:17.130Z,15.90
2019-02-22T01:26:46.946Z,13.93
2019-02-22T01:29:16.741Z,16.77
2019-02-22T01:31:46.626Z,16.50
2019-02-22T01:34:16.450Z,15.20
2019-02-22T01:36:46.266Z,13.40
2019-02-22T01:39:17.065Z,9.90
2019-02-22T01:41:47.134Z,15.83
2019-02-22T01:44:21.515Z,13.87
2019-02-22T01:46:51.406Z,16.90
2019-02-22T01:49:21.225Z,15.40
2019-02-22T01:51:51.558Z,16.50
2019-02-22T01:54:22.274Z,18.07
2019-02-22T01:56:52.036Z,15.17
2019-02-22T01:59:21.862Z,16.83
2019-02-22T02:01:51.673Z,18.43
2019-02-22T02:04:21.426Z,17.00
2019-02-22T02:06:51.165Z,18.57
2019-02-22T02:09:21.237Z,15.37
2019-02-22T02:11:51.057Z,17.33
2019-02-22T02:14:20.815Z,16.93
2019-02-22T02:16:50.562Z,15.90
2019-02-22T02:19:20.555Z,17.37
2019-02-22T02:21:50.294Z,14.90
2019-02-22T02:24:20.192Z,16.13
2019-02-22T02:26:50.257Z,17.03
2019-02-22T02:29:19.999Z,15.33
2019-02-22T02:31:49.894Z,18.90
2019-02-22T02:34:20.683Z,17.00
2019-02-22T02:36:50.807Z,16.73
2019-02-22T02:39:20.609Z,16.80
2019-02-22T02:41:50.366Z,17.10
2019-02-22T02:44:20.106Z,16.00
2019-02-22T02:46:50.112Z,12.07
2019-02-22T02:49:20.145Z,14.70
2019-02-22T02:51:49.888Z,14.43
2019-02-22T02:54:19.893Z,15.93
2019-02-22T02:56:49.729Z,13.40
2019-02-22T02:59:19.480Z,15.33
2019-02-22T03:01:49.637Z,16.17
2019-02-22T03:04:19.466Z,15.67
2019-02-22T03:07:02.962Z,15.90
2019-02-22T03:09:32.781Z,17.30
2019-02-22T03:12:02.848Z,16.07
2019-02-22T03:14:32.849Z,17.40
2019-02-22T03:17:02.851Z,18.60
2019-02-22T03:19:32.595Z,16.47
2019-02-22T03:22:02.359Z,17.67
2019-02-22T03:24:32.176Z,17.40
2019-02-22T03:27:01.994Z,16.13
2019-02-22T03:29:31.742Z,15.93
2019-02-22T03:32:01.493Z,16.67
2019-02-22T03:34:31.325Z,17.63
2019-02-22T03:37:01.330Z,15.00
2019-02-22T03:39:31.070Z,18.90
2019-02-22T03:42:00.835Z,17.50
2019-02-22T03:44:30.818Z,18.70
2019-02-22T03:47:00.576Z,16.70
2019-02-22T03:49:30.376Z,16.90
2019-02-22T03:52:02.138Z,16.20
2019-02-22T03:54:31.880Z,18.67
2019-02-22T03:57:02.102Z,17.53
2019-02-22T03:59:31.998Z,17.43
2019-02-22T04:02:01.759Z,17.40
2019-02-22T04:04:31.643Z,20.80
2019-02-22T04:07:01.397Z,19.60
2019-02-22T04:09:31.130Z,19.73
2019-02-22T04:12:01.153Z,20.13
2019-02-22T04:14:31.047Z,19.27
2019-02-22T04:17:00.803Z,19.63
2019-02-22T04:19:30.545Z,17.47
2019-02-22T04:22:00.376Z,15.00
2019-02-22T04:24:30.123Z,19.43
2019-02-22T04:26:59.928Z,18.03
2019-02-22T04:29:29.822Z,18.40
2019-02-22T04:31:59.755Z,19.17
2019-02-22T04:34:29.681Z,17.17
2019-02-22T04:36:59.621Z,18.93
2019-02-22T04:39:29.509Z,19.40
2019-02-22T04:41:59.253Z,19.37
2019-02-22T04:44:28.993Z,18.37
2019-02-22T04:46:58.821Z,20.00
2019-02-22T04:49:28.575Z,19.03
2019-02-22T04:51:58.329Z,16.53
2019-02-22T04:54:28.067Z,20.07
2019-02-22T04:56:57.910Z,17.43
2019-02-22T04:59:27.716Z,10.30
2019-02-22T05:01:57.482Z,12.73
2019-02-22T05:04:27.302Z,18.10
2019-02-22T05:06:57.133Z,18.37
2019-02-22T05:09:26.946Z,17.60
2019-02-22T05:11:56.683Z,21.00
2019-02-22T05:14:26.422Z,18.03
2019-02-22T05:16:56.176Z,18.27
2019-02-22T05:19:26.422Z,20.73
2019-02-22T05:21:56.298Z,18.57
2019-02-22T05:24:26.053Z,18.93
2019-02-22T05:26:56.135Z,18.60
2019-02-22T05:29:25.881Z,21.37
2019-02-22T05:31:55.719Z,18.27
2019-02-22T05:34:25.573Z,19.03
2019-02-22T05:36:55.371Z,19.27
2019-02-22T05:39:25.133Z,19.97
2019-02-22T05:41:55.027Z,23.67
2019-02-22T05:44:24.785Z,21.67
2019-02-22T05:47:00.390Z,20.13
2019-02-22T05:49:25.977Z,22.77
2019-02-22T05:51:55.718Z,20.63
2019-02-22T05:54:25.477Z,21.43
2019-02-22T05:56:55.575Z,21.40
2019-02-22T05:59:25.409Z,23.20
2019-02-22T06:01:55.205Z,21.10
2019-02-22T06:04:24.966Z,22.77
2019-02-22T06:06:54.720Z,20.33
2019-02-22T06:09:24.474Z,24.13
2019-02-22T06:11:54.433Z,22.53
2019-02-22T06:14:24.485Z,22.87
2019-02-22T06:16:54.275Z,21.20
2019-02-22T06:19:24.202Z,22.53
2019-02-22T06:21:54.365Z,22.23
2019-02-22T06:24:24.893Z,21.53
2019-02-22T06:26:54.645Z,22.93
2019-02-22T06:29:24.409Z,21.83
2019-02-22T06:31:54.289Z,21.33
2019-02-22T06:34:24.369Z,22.40
2019-02-22T06:37:01.947Z,21.83
2019-02-22T06:39:25.565Z,23.83
2019-02-22T06:41:55.305Z,23.20
2019-02-22T06:44:25.130Z,23.50
2019-02-22T06:46:55.569Z,21.83
2019-02-22T06:49:25.357Z,20.80
2019-02-22T06:51:55.110Z,20.87
2019-02-22T06:54:26.237Z,22.20
2019-02-22T06:56:56.333Z,22.53
2019-02-22T06:59:26.166Z,20.63
2019-02-22T07:01:55.917Z,21.70
2019-02-22T07:04:25.672Z,21.00
2019-02-22T07:06:55.414Z,21.57
2019-02-22T07:09:25.157Z,21.33
2019-02-22T07:11:58.319Z,22.30
2019-02-22T07:14:28.065Z,21.80
2019-02-22T07:16:57.881Z,19.50
2019-02-22T07:19:27.621Z,18.20
2019-02-22T07:21:57.450Z,20.07
2019-02-22T07:24:27.202Z,20.37
2019-02-22T07:26:57.277Z,20.50
2019-02-22T07:29:27.028Z,19.93
2019-02-22T07:32:05.227Z,18.50
2019-02-22T07:34:28.801Z,19.00
2019-02-22T07:36:58.623Z,18.53
2019-02-22T07:39:28.713Z,19.93
2019-02-22T07:41:58.534Z,20.93
2019-02-22T07:44:28.293Z,18.40
2019-02-22T07:46:58.383Z,19.43
2019-02-22T07:49:28.329Z,18.37
2019-02-22T07:51:58.143Z,19.77
2019-02-22T07:54:27.900Z,17.13
2019-02-22T07:56:57.716Z,18.03
2019-02-22T07:59:27.539Z,18.97
2019-02-22T08:01:57.421Z,16.77
2019-02-22T08:04:27.177Z,18.27
2019-02-22T08:06:56.918Z,19.13
2019-02-22T08:09:26.699Z,20.20
2019-02-22T08:11:56.437Z,19.57
2019-02-22T08:14:26.518Z,18.47
2019-02-22T08:16:56.266Z,19.93
2019-02-22T08:19:26.031Z,19.77
2019-02-22T08:21:55.850Z,19.20
2019-02-22T08:24:26.049Z,18.60
2019-02-22T08:26:56.117Z,17.87
2019-02-22T08:29:26.005Z,18.43
2019-02-22T08:31:56.039Z,18.07
2019-02-22T08:34:26.046Z,17.73
2019-02-22T08:36:55.841Z,17.97
2019-02-22T08:39:25.999Z,19.70
2019-02-22T08:41:55.865Z,19.37
2019-02-22T08:44:25.609Z,18.77
2019-02-22T08:46:55.621Z,18.00
2019-02-22T08:49:25.365Z,19.73
2019-02-22T08:51:55.203Z,18.77
2019-02-22T08:54:24.956Z,16.70
2019-02-22T08:56:54.956Z,18.43
2019-02-22T08:59:24.852Z,17.27
2019-02-22T09:01:54.594Z,18.93
2019-02-22T09:04:24.351Z,17.57
2019-02-22T09:06:54.180Z,17.80
2019-02-22T09:09:23.923Z,17.30
2019-02-22T09:11:53.686Z,19.97
2019-02-22T09:14:23.437Z,17.33
2019-02-22T09:16:53.262Z,17.27
2019-02-22T09:19:23.295Z,16.50
2019-02-22T09:21:53.361Z,16.77
2019-02-22T09:24:24.389Z,16.43
2019-02-22T09:26:54.218Z,16.50
2019-02-22T09:29:24.041Z,17.87
2019-02-22T09:31:53.866Z,16.73
2019-02-22T09:34:23.683Z,15.20
2019-02-22T09:36:54.415Z,15.73
2019-02-22T09:39:24.161Z,16.17
2019-02-22T09:41:53.946Z,16.23
2019-02-22T09:44:23.693Z,15.90
2019-02-22T09:46:53.534Z,15.40
2019-02-22T09:49:23.419Z,15.03
2019-02-22T09:51:53.249Z,15.17
2019-02-22T09:54:24.641Z,14.67
2019-02-22T09:56:54.473Z,16.13
2019-02-22T09:59:24.299Z,15.30
2019-02-22T10:01:54.130Z,14.73
2019-02-22T10:04:23.935Z,15.77
2019-02-22T10:06:53.700Z,14.53
2019-02-22T10:09:23.718Z,13.33
2019-02-22T10:11:53.473Z,14.47
2019-02-22T10:14:23.220Z,13.87
2019-02-22T10:16:52.960Z,13.70
2019-02-22T10:19:22.744Z,14.73
2019-02-22T10:21:52.805Z,15.77
2019-02-22T10:24:22.699Z,14.47
2019-02-22T10:26:52.618Z,12.97
2019-02-22T10:29:22.549Z,14.00
2019-02-22T10:31:53.377Z,14.47
2019-02-22T10:34:23.431Z,13.23
2019-02-22T10:36:53.412Z,14.27
2019-02-22T10:39:23.495Z,12.80
2019-02-22T10:41:53.407Z,12.40
2019-02-22T10:44:23.220Z,12.70
2019-02-22T10:46:53.245Z,13.17
2019-02-22T10:49:23.398Z,13.63
2019-02-22T10:51:54.190Z,13.07
2019-02-22T10:54:23.950Z,12.67
2019-02-22T10:56:53.782Z,13.37
2019-02-22T10:59:23.520Z,11.67
2019-02-22T11:01:53.358Z,11.83
2019-02-22T11:04:23.529Z,12.70
2019-02-22T11:06:53.277Z,11.37
2019-02-22T11:09:23.360Z,12.17
2019-02-22T11:11:53.366Z,11.60
2019-02-22T11:14:29.321Z,12.37
2019-02-22T11:16:55.113Z,10.63
2019-02-22T11:19:24.858Z,10.97
2019-02-22T11:21:54.610Z,10.07
2019-02-22T11:24:24.362Z,10.70
2019-02-22T11:26:54.104Z,9.70
2019-02-22T11:29:23.928Z,10.93
2019-02-22T11:31:53.692Z,10.63
2019-02-22T11:34:23.432Z,10.13
2019-02-22T11:36:53.416Z,9.87
2019-02-22T11:39:23.241Z,10.30
2019-02-22T11:41:53.159Z,9.27
2019-02-22T11:44:23.933Z,9.73
2019-02-22T11:46:53.677Z,9.20
2019-02-22T11:49:23.664Z,9.43
2019-02-22T11:51:55.889Z,9.10
2019-02-22T11:54:24.911Z,9.20
2019-02-22T11:56:54.920Z,9.20
2019-02-22T11:59:24.822Z,9.50
2019-02-22T12:01:54.810Z,10.27
2019-02-22T12:04:24.629Z,8.97
2019-02-22T12:06:54.422Z,9.07
2019-02-22T12:09:25.133Z,9.20
2019-02-22T12:11:54.953Z,8.60
2019-02-22T12:14:24.766Z,8.93
2019-02-22T12:16:54.517Z,8.70
2019-02-22T12:19:24.265Z,8.37
2019-02-22T12:21:54.112Z,9.40
2019-02-22T12:24:23.869Z,12.53
2019-02-22T12:26:53.608Z,10.57
2019-02-22T12:29:23.654Z,7.80
2019-02-22T12:31:53.958Z,9.47
2019-02-22T12:34:24.241Z,9.87
2019-02-22T12:36:54.109Z,10.17
2019-02-22T12:39:24.230Z,10.27
2019-02-22T12:41:54.181Z,9.23
2019-02-22T12:44:24.225Z,9.73
2019-02-22T12:46:54.095Z,9.57
2019-02-22T12:49:24.219Z,10.53
2019-02-22T12:51:54.154Z,7.90
2019-02-22T12:54:24.133Z,6.93
2019-02-22T12:56:57.297Z,7.40
2019-02-22T12:59:26.550Z,8.87
2019-02-22T13:01:58.406Z,10.67
2019-02-22T13:04:28.238Z,11.83
2019-02-22T13:06:57.999Z,10.13
2019-02-22T13:09:36.217Z,9.10
2019-02-22T13:11:59.963Z,8.37
2019-02-22T13:14:29.730Z,6.97
2019-02-22T13:16:59.498Z,7.00
2019-02-22T13:19:29.276Z,5.90
2019-02-22T13:21:59.173Z,7.50
2019-02-22T13:24:28.929Z,6.83
2019-02-22T13:26:58.700Z,7.43
2019-02-22T13:29:28.490Z,7.00
2019-02-22T13:31:58.251Z,7.77
2019-02-22T13:34:28.010Z,7.30
2019-02-22T13:36:58.097Z,7.90
2019-02-22T13:39:28.208Z,8.37
2019-02-22T13:41:58.047Z,6.00
2019-02-22T13:44:27.845Z,6.50
2019-02-22T13:46:58.013Z,6.27
2019-02-22T13:49:28.028Z,5.93
2019-02-22T13:51:57.846Z,4.83
2019-02-22T13:54:27.757Z,5.07
2019-02-22T13:56:57.522Z,4.47
2019-02-22T13:59:27.299Z,4.33
2019-02-22T14:01:57.118Z,5.10
2019-02-22T14:04:26.900Z,4.67
2019-02-22T14:06:57.705Z,4.23
2019-02-22T14:09:27.481Z,4.77
2019-02-22T14:11:57.305Z,4.60
2019-02-22T14:14:27.450Z,4.40
2019-02-22T14:16:57.397Z,3.87
2019-02-22T14:19:27.243Z,4.00
2019-02-22T14:21:57.357Z,2.87
2019-02-22T14:24:27.230Z,2.73
2019-02-22T14:26:57.065Z,3.03
2019-02-22T14:29:26.822Z,2.40
2019-02-22T14:31:56.642Z,2.30
2019-02-22T14:34:26.699Z,2.37
2019-02-22T14:36:56.554Z,2.07
2019-02-22T14:39:27.265Z,1.53
2019-02-22T14:41:57.835Z,2.13
2019-02-22T14:44:28.011Z,1.70
2019-02-22T14:46:57.797Z,2.20
2019-02-22T14:49:28.270Z,2.20
2019-02-22T14:51:58.189Z,1.90
2019-02-22T14:54:27.995Z,2.23
2019-02-22T14:56:58.047Z,2.10
2019-02-22T14:59:28.029Z,2.70
2019-02-22T15:01:58.374Z,3.40
2019-02-22T15:04:29.245Z,1.93
2019-02-22T15:06:59.074Z,1.73
2019-02-22T15:09:28.982Z,1.40
2019-02-22T15:11:58.962Z,1.27
2019-02-22T15:14:31.774Z,2.30
2019-02-22T15:17:23.821Z,1.60
2019-02-22T15:19:54.085Z,1.43
2019-02-22T15:22:24.187Z,1.50
2019-02-22T15:24:54.012Z,1.63
2019-02-22T15:27:23.883Z,1.60
2019-02-22T15:29:53.937Z,1.70
2019-02-22T15:32:23.823Z,1.87
2019-02-22T15:34:53.827Z,2.13
2019-02-22T15:37:24.124Z,1.90
2019-02-22T15:39:53.919Z,2.10
2019-02-22T15:42:23.737Z,1.77
2019-02-22T15:44:53.484Z,1.93
2019-02-22T15:47:23.566Z,2.03
2019-02-22T15:49:53.422Z,2.13
2019-02-22T15:52:23.357Z,2.20
2019-02-22T15:54:53.266Z,2.83
2019-02-22T15:57:25.039Z,3.93
2019-02-22T15:59:54.707Z,4.30
2019-02-22T16:02:24.470Z,3.20
2019-02-22T16:05:02.079Z,3.20
2019-02-22T16:07:44.327Z,4.27
2019-02-22T16:10:13.744Z,3.47
2019-02-22T16:12:44.529Z,3.20
2019-02-22T16:15:16.023Z,2.93
2019-02-22T16:17:46.226Z,3.90
2019-02-22T16:20:16.643Z,2.50
2019-02-22T16:22:46.563Z,2.60
2019-02-22T16:25:19.861Z,2.67
2019-02-22T16:27:52.798Z,4.13
2019-02-22T16:30:23.120Z,6.57
2019-02-22T16:32:53.751Z,7.17
2019-02-22T16:35:23.705Z,5.80
2019-02-22T16:37:53.544Z,3.87
2019-02-22T16:40:23.365Z,3.23
2019-02-22T16:42:53.387Z,3.30
2019-02-22T16:45:23.683Z,2.60
2019-02-22T16:47:54.002Z,3.20
2019-02-22T16:50:24.197Z,2.30
2019-02-22T16:52:54.427Z,2.33
2019-02-22T16:55:24.570Z,1.83
2019-02-22T16:57:55.018Z,1.73
2019-02-22T17:00:25.053Z,2.37
2019-02-22T17:02:55.015Z,1.90
2019-02-22T17:05:25.454Z,1.63
2019-02-22T17:07:55.316Z,1.73
2019-02-22T17:10:25.269Z,2.10
2019-02-22T17:12:55.806Z,2.30
2019-02-22T17:15:25.648Z,3.57
2019-02-22T17:17:55.512Z,3.77
2019-02-22T17:20:25.566Z,3.03
2019-02-22T17:22:55.387Z,2.50
2019-02-22T17:25:25.335Z,2.60
2019-02-22T17:27:55.358Z,2.80
2019-02-22T17:30:25.214Z,4.83
2019-02-22T17:32:54.969Z,3.23
2019-02-22T17:35:25.780Z,2.70
2019-02-22T17:37:55.861Z,2.50
2019-02-22T17:40:25.653Z,2.10
2019-02-22T17:42:55.410Z,2.20
2019-02-22T17:45:25.619Z,2.03
2019-02-22T17:47:55.438Z,2.10
2019-02-22T17:50:25.523Z,1.80
2019-02-22T17:52:55.291Z,1.40
2019-02-22T17:55:25.106Z,1.90
2019-02-22T17:57:55.177Z,1.97
2019-02-22T18:00:25.434Z,2.07
2019-02-22T18:02:55.266Z,2.10
2019-02-22T18:05:25.670Z,2.00
2019-02-22T18:07:55.625Z,1.90
2019-02-22T18:10:25.508Z,2.43
2019-02-22T18:12:55.345Z,3.50
2019-02-22T18:15:25.249Z,4.03
2019-02-22T18:17:55.269Z,3.30
2019-02-22T18:20:25.170Z,2.57
2019-02-22T18:22:54.974Z,3.63
2019-02-22T18:25:24.780Z,4.87
2019-02-22T18:27:54.589Z,4.10
2019-02-22T18:30:24.391Z,3.80
2019-02-22T18:32:54.261Z,3.73
2019-02-22T18:35:24.327Z,3.40
2019-02-22T18:37:54.123Z,3.93
2019-02-22T18:40:24.028Z,3.60
2019-02-22T18:42:53.901Z,4.13
2019-02-22T18:45:23.977Z,4.23
2019-02-22T18:47:53.894Z,3.77
2019-02-22T18:50:23.750Z,4.00
2019-02-22T18:52:53.632Z,4.00
2019-02-22T18:55:23.482Z,3.80
2019-02-22T18:57:53.453Z,3.97
2019-02-22T19:00:23.828Z,4.10
2019-02-22T19:02:53.789Z,4.27
2019-02-22T19:05:23.877Z,4.43
2019-02-22T19:07:53.778Z,4.23
2019-02-22T19:10:24.837Z,4.63
2019-02-22T19:12:54.581Z,4.50
2019-02-22T19:15:24.395Z,4.70
2019-02-22T19:17:54.497Z,5.00
2019-02-22T19:20:24.405Z,4.60
2019-02-22T19:22:54.253Z,4.20
2019-02-22T19:25:24.246Z,4.87
2019-02-22T19:27:54.068Z,4.73
2019-02-22T19:30:23.917Z,5.13
2019-02-22T19:32:53.799Z,5.17
2019-02-22T19:35:23.615Z,4.70
2019-02-22T19:37:53.417Z,5.83
2019-02-22T19:40:23.328Z,6.33
2019-02-22T19:42:53.169Z,7.87
2019-02-22T19:45:23.125Z,6.97
2019-02-22T19:47:53.369Z,5.17
2019-02-22T19:50:23.224Z,6.07
2019-02-22T19:52:53.130Z,5.63
2019-02-22T19:55:22.974Z,5.30
2019-02-22T19:57:52.877Z,5.30
2019-02-22T20:00:23.757Z,5.80
2019-02-22T20:02:53.621Z,5.47
2019-02-22T20:05:23.494Z,5.00
2019-02-22T20:07:53.414Z,5.23
2019-02-22T20:10:23.360Z,5.60
2019-02-22T20:12:53.493Z,5.13
2019-02-22T20:15:24.349Z,5.07
2019-02-22T20:17:55.091Z,4.87
2019-02-22T20:20:25.059Z,5.40
2019-02-22T20:22:54.985Z,5.53
2019-02-22T20:25:24.883Z,6.20
2019-02-22T20:27:54.642Z,5.87
2019-02-22T20:30:24.482Z,5.63
2019-02-22T20:32:54.453Z,5.50
2019-02-22T20:35:24.247Z,5.40
2019-02-22T20:37:54.069Z,4.80
2019-02-22T20:40:25.013Z,4.43
2019-02-22T20:42:57.921Z,4.63
2019-02-22T20:45:27.849Z,4.67
2019-02-22T20:48:05.177Z,4.40
2019-02-22T20:50:29.589Z,4.33
2019-02-22T20:52:59.457Z,5.07
2019-02-22T20:55:29.510Z,4.40
2019-02-22T20:57:59.266Z,4.47
2019-02-22T21:00:29.208Z,4.87
2019-02-22T21:02:59.058Z,4.67
2019-02-22T21:05:28.873Z,4.20
2019-02-22T21:07:58.711Z,4.60
2019-02-22T21:10:28.485Z,4.50
2019-02-22T21:12:58.253Z,4.47
2019-02-22T21:15:28.167Z,4.47
2019-02-22T21:17:58.138Z,4.20
2019-02-22T21:20:28.336Z,4.07
2019-02-22T21:22:59.441Z,5.17
2019-02-22T21:25:29.578Z,4.07
2019-02-22T21:27:59.642Z,4.57
2019-02-22T21:30:30.055Z,4.23
2019-02-22T21:33:00.020Z,4.60
2019-02-22T21:35:30.385Z,4.47
2019-02-22T21:38:00.645Z,4.50
2019-02-22T21:40:31.580Z,5.03
2019-02-22T21:43:01.523Z,4.43
2019-02-22T21:45:31.373Z,5.37
2019-02-22T21:48:01.193Z,4.80
2019-02-22T21:50:31.281Z,5.20
2019-02-22T21:53:01.265Z,4.73
2019-02-22T21:55:31.079Z,4.93
2019-02-22T21:58:02.528Z,4.83
2019-02-22T22:00:32.346Z,4.70
2019-02-22T22:03:02.158Z,4.80
2019-02-22T22:05:32.021Z,4.93
2019-02-22T22:08:01.762Z,4.70
2019-02-22T22:10:31.765Z,4.57
2019-02-22T22:13:01.607Z,4.17
2019-02-22T22:15:31.348Z,4.33
2019-02-22T22:18:01.177Z,4.77
2019-02-22T22:20:30.986Z,5.27
2019-02-22T22:23:00.734Z,4.30
2019-02-22T22:25:30.614Z,4.50
2019-02-22T22:28:00.460Z,4.47
2019-02-22T22:30:30.313Z,4.70
2019-02-22T22:33:00.148Z,4.60
2019-02-22T22:35:29.990Z,4.57
2019-02-22T22:38:00.070Z,4.27
2019-02-22T22:40:29.838Z,4.40
2019-02-22T22:42:59.797Z,4.70
2019-02-22T22:45:29.837Z,4.10
2019-02-22T22:48:00.779Z,4.30
2019-02-22T22:50:30.651Z,4.17
2019-02-22T22:53:00.645Z,4.63
2019-02-22T22:55:30.658Z,4.67
2019-02-22T22:58:00.494Z,4.53
2019-02-22T23:01:02.827Z,4.80
2019-02-22T23:03:32.799Z,5.10
2019-02-22T23:06:02.910Z,4.53
2019-02-22T23:08:32.896Z,4.97
2019-02-22T23:11:02.815Z,5.37
2019-02-22T23:13:32.634Z,4.70
2019-02-22T23:16:02.505Z,4.13
2019-02-22T23:18:32.752Z,4.30
2019-02-22T23:21:02.494Z,4.07
2019-02-22T23:23:32.671Z,4.13
2019-02-22T23:26:02.565Z,3.60
2019-02-22T23:28:32.421Z,3.60
2019-02-22T23:31:02.569Z,3.83
2019-02-22T23:33:32.472Z,4.13
2019-02-22T23:36:02.642Z,4.53
2019-02-22T23:38:32.548Z,4.17
2019-02-22T23:41:03.366Z,4.37
2019-02-22T23:43:33.184Z,4.77
2019-02-22T23:46:03.228Z,4.03
2019-02-22T23:48:33.101Z,3.70
2019-02-22T23:51:03.912Z,3.80
2019-02-22T23:53:33.873Z,4.00
2019-02-22T23:56:03.812Z,4.03
2019-02-22T23:58:34.689Z,4.93
